TZ-0048 weather

Mtemere Airport
Mtemere, Pwani Region, Tanzania

Public forecast

Using degrees Celsius for public forecast. Weather courtesy of forecast.io.

METAR (pilot weather report)

Report is more than 6 hours old.

Closest report is Morogoro Airport, 66.1 nm (122.4 km) NNW. Retrieved 2019/04/21 15:00 UTC (21 hours ago):

HTMG 211500Z 00000KT 9999 SCT027 FEW028CB 30/24 Q1012

TAF (pilot weather forecast)

Forecast is more than 12 hours old.

Closest forecast is Julius Nyerere International Airport, 79.0 nm (146.4 km) NE. Retrieved 2019/04/18 06:00 UTC (4 days ago):

TAF HTDA 180500Z 1806/1912 18010KT 9999 BKN020 FEW021CB TEMPO 1809/1812 SHRA BECMG 1816/1818 SCT018 BECMG 1907/1910 TSRA BKN019 FEW020CB